Time;durP1;ratioP1;P1;durP2;ratioP2;P2;SDS_P1;SDS_P2;PMS_P1;PMS_P2;Temp;Humidity;BMP_temperature;BMP_pressure;BME280_temperature;BME280_humidity;BME280_pressure;Samples;Min_cycle;Max_cycle;Signal;HPM_P1;HPM_P2
2021/07/31 00:01:13;;;;;;;9.48;4.95;;;;;;;17.56;66.47;99668.36;1646177;87;21174;-71
2021/07/31 00:03:39;;;;;;;13.75;5.72;;;;;;;17.62;66.32;99674.19;1645620;87;21062;-71
2021/07/31 00:06:06;;;;;;;9.65;5.20;;;;;;;17.68;66.18;99669.20;1646073;86;21081;-71
2021/07/31 00:08:32;;;;;;;8.60;4.75;;;;;;;17.73;66.03;99666.09;1645721;87;21063;-71
2021/07/31 00:10:58;;;;;;;14.53;4.95;;;;;;;17.77;65.89;99661.05;1646057;87;21018;-71
2021/07/31 00:13:25;;;;;;;13.38;5.42;;;;;;;17.80;65.76;99657.91;1645473;86;21993;-71
2021/07/31 00:15:51;;;;;;;8.70;4.87;;;;;;;17.87;65.61;99651.87;1646922;86;21180;-71
2021/07/31 00:18:17;;;;;;;13.38;5.25;;;;;;;17.91;65.45;99646.27;1654016;86;21038;-71
2021/07/31 00:20:43;;;;;;;9.63;4.70;;;;;;;17.93;65.29;99644.17;1653906;86;21045;-71
2021/07/31 00:23:09;;;;;;;10.45;4.62;;;;;;;17.95;65.17;99633.95;1682598;85;21098;-71
2021/07/31 00:25:35;;;;;;;10.48;5.30;;;;;;;17.96;65.06;99635.59;1682441;85;21056;-71
2021/07/31 00:28:01;;;;;;;8.48;5.20;;;;;;;17.94;64.93;99635.03;1682840;85;20955;-71
2021/07/31 00:30:28;;;;;;;10.23;6.05;;;;;;;17.95;64.82;99639.34;1682223;85;21526;-71
2021/07/31 00:32:55;;;;;;;13.30;5.95;;;;;;;17.92;64.76;99636.60;1682577;85;21050;-71
2021/07/31 00:35:21;;;;;;;13.43;5.00;;;;;;;17.92;64.64;99633.91;1682598;85;21054;-71
2021/07/31 00:37:47;;;;;;;11.50;5.47;;;;;;;17.92;64.56;99633.08;1682386;85;21201;-71
2021/07/31 00:40:13;;;;;;;11.55;5.62;;;;;;;17.92;64.47;99639.83;1682756;85;21780;-71
2021/07/31 00:42:43;;;;;;;14.47;5.72;;;;;;;17.90;64.41;99640.60;1682517;85;21038;-71
2021/07/31 00:45:10;;;;;;;11.80;5.42;;;;;;;17.91;64.36;99642.22;1682662;85;21070;-71
2021/07/31 00:47:37;;;;;;;15.30;5.22;;;;;;;17.91;64.28;99643.05;1682236;85;21446;-71
2021/07/31 00:50:05;;;;;;;10.08;5.20;;;;;;;17.94;64.21;99643.13;1682605;85;21046;-71
2021/07/31 00:52:32;;;;;;;11.15;5.50;;;;;;;17.98;64.12;99634.82;1682506;85;21483;-71
2021/07/31 00:54:59;;;;;;;11.05;5.22;;;;;;;18.03;64.04;99636.82;1682346;85;21105;-71
2021/07/31 00:57:25;;;;;;;11.83;5.42;;;;;;;18.06;63.95;99635.81;1682320;85;21030;-71
2021/07/31 00:59:51;;;;;;;14.83;5.53;;;;;;;18.08;63.86;99639.12;1682676;85;21002;-71
2021/07/31 01:02:17;;;;;;;12.88;5.62;;;;;;;18.11;63.75;99631.89;1682714;85;22259;-71
2021/07/31 01:04:43;;;;;;;11.15;5.67;;;;;;;18.13;63.69;99631.11;1681556;85;21011;-71
2021/07/31 01:07:09;;;;;;;9.10;5.33;;;;;;;18.16;63.59;99632.51;1682597;85;21057;-71
2021/07/31 01:09:35;;;;;;;10.08;6.42;;;;;;;18.18;63.49;99630.41;1682316;85;21528;-71
2021/07/31 01:12:02;;;;;;;13.55;5.87;;;;;;;18.16;63.40;99626.59;1682478;85;21053;-71
2021/07/31 01:14:28;;;;;;;12.82;6.40;;;;;;;18.14;63.34;99621.97;1682490;85;21105;-71
2021/07/31 01:16:55;;;;;;;11.08;5.92;;;;;;;18.13;63.29;99621.66;1682267;85;21089;-71
2021/07/31 01:19:21;;;;;;;12.28;6.22;;;;;;;18.11;63.24;99617.58;1682763;85;21070;-71
2021/07/31 01:21:47;;;;;;;12.78;6.22;;;;;;;18.10;63.17;99626.20;1682881;85;21011;-71
2021/07/31 01:24:14;;;;;;;12.85;6.20;;;;;;;18.07;63.13;99621.28;1682770;85;21596;-71
2021/07/31 01:26:43;;;;;;;13.75;6.00;;;;;;;18.04;63.10;99623.11;1682461;85;21145;-71
2021/07/31 01:29:10;;;;;;;13.13;5.65;;;;;;;18.01;63.09;99624.93;1682406;85;21070;-71
2021/07/31 01:31:36;;;;;;;9.50;5.45;;;;;;;17.98;63.04;99631.59;1682469;85;21065;-71
2021/07/31 01:34:03;;;;;;;11.03;5.70;;;;;;;17.94;63.04;99622.33;1682776;85;21522;-71
2021/07/31 01:36:29;;;;;;;10.05;5.70;;;;;;;17.94;63.00;99625.59;1682721;85;21113;-71
2021/07/31 01:38:57;;;;;;;11.80;5.30;;;;;;;17.92;62.99;99624.46;1682548;85;21082;-71
2021/07/31 01:41:23;;;;;;;12.40;5.42;;;;;;;17.92;62.96;99626.34;1681602;85;21061;-71
2021/07/31 01:43:49;;;;;;;11.73;6.00;;;;;;;17.91;62.95;99617.94;1682130;85;21083;-71
2021/07/31 01:46:15;;;;;;;8.45;5.22;;;;;;;17.90;62.94;99609.58;1682339;85;21065;-71
2021/07/31 01:48:41;;;;;;;10.00;5.33;;;;;;;17.88;62.91;99604.92;1682730;85;21573;-71
2021/07/31 01:51:07;;;;;;;10.80;5.67;;;;;;;17.86;62.90;99604.36;1682492;85;21895;-71
2021/07/31 01:53:33;;;;;;;13.90;5.90;;;;;;;17.85;62.91;99609.45;1682521;85;21002;-71
2021/07/31 01:55:59;;;;;;;10.40;5.95;;;;;;;17.83;62.88;99606.18;1682603;85;21073;-71
2021/07/31 01:58:25;;;;;;;11.75;6.10;;;;;;;17.81;62.90;99602.88;1682799;85;21078;-71
2021/07/31 02:00:55;;;;;;;9.08;5.58;;;;;;;17.80;62.90;99605.31;1682449;85;21022;-71
2021/07/31 02:03:21;;;;;;;;;;;;;;;17.80;62.90;99598.56;1685225;85;21052;-71
2021/07/31 02:05:47;;;;;;;11.65;6.83;;;;;;;17.78;62.90;99598.79;1682397;85;20199;-71
2021/07/31 02:08:13;;;;;;;9.28;6.10;;;;;;;17.76;62.90;99597.39;1682494;85;21050;-71
2021/07/31 02:10:39;;;;;;;13.53;6.08;;;;;;;17.72;62.92;99597.05;1682327;85;21014;-71
2021/07/31 02:13:05;;;;;;;10.50;6.45;;;;;;;17.71;62.95;99594.57;1682119;85;21129;-71
2021/07/31 02:15:31;;;;;;;13.20;7.12;;;;;;;17.71;62.96;99595.91;1681846;85;21211;-71
2021/07/31 02:17:58;;;;;;;12.65;6.62;;;;;;;17.69;63.01;99596.70;1682323;85;21464;-71
2021/07/31 02:20:24;;;;;;;10.32;7.45;;;;;;;17.67;63.03;99590.70;1682710;85;21546;-71
2021/07/31 02:22:51;;;;;;;10.18;5.42;;;;;;;17.65;63.08;99589.60;1682400;85;21018;-71
2021/07/31 02:25:17;;;;;;;9.38;5.67;;;;;;;17.65;63.12;99591.47;1682449;85;21073;-71
2021/07/31 02:27:43;;;;;;;12.33;6.28;;;;;;;17.62;63.14;99583.34;1682498;85;21111;-71
2021/07/31 02:30:11;;;;;;;11.70;6.92;;;;;;;17.60;63.16;99584.08;1682461;85;21507;-71
2021/07/31 02:32:37;;;;;;;12.50;6.25;;;;;;;17.59;63.20;99582.98;1682488;85;21017;-71
2021/07/31 02:35:05;;;;;;;9.93;6.10;;;;;;;17.55;63.23;99579.91;1682718;85;21006;-71
2021/07/31 02:37:31;;;;;;;10.72;6.60;;;;;;;17.52;63.31;99573.64;1682606;85;21090;-71
2021/07/31 02:39:57;;;;;;;14.98;6.10;;;;;;;17.51;63.34;99570.64;1682147;85;21143;-71
2021/07/31 02:42:23;;;;;;;11.25;6.40;;;;;;;17.49;63.38;99572.22;1682474;85;21054;-71
2021/07/31 02:44:49;;;;;;;13.00;5.90;;;;;;;17.47;63.42;99572.98;1682252;85;21479;-71
2021/07/31 02:47:15;;;;;;;12.93;6.62;;;;;;;17.45;63.44;99571.03;1682563;85;21562;-71
2021/07/31 02:49:41;;;;;;;11.53;6.10;;;;;;;17.45;63.51;99564.85;1682569;85;21050;-71
2021/07/31 02:52:07;;;;;;;15.15;8.03;;;;;;;17.44;63.55;99562.68;1682500;85;21141;-71
2021/07/31 02:54:34;;;;;;;9.70;5.92;;;;;;;17.43;63.57;99561.03;1658231;85;38617;-71
2021/07/31 02:57:00;;;;;;;15.13;6.40;;;;;;;17.41;63.62;99560.45;1681915;85;21029;-71
2021/07/31 02:59:26;;;;;;;13.55;6.33;;;;;;;17.40;63.66;99557.45;1682537;85;21039;-71
2021/07/31 03:01:52;;;;;;;9.10;5.37;;;;;;;17.41;63.69;99556.94;1682260;85;21089;-71
2021/07/31 03:04:19;;;;;;;9.88;5.65;;;;;;;17.40;63.70;99557.45;1682638;85;21641;-71
2021/07/31 03:06:45;;;;;;;13.48;5.80;;;;;;;17.39;63.73;99550.42;1682326;85;21046;-71
2021/07/31 03:09:11;;;;;;;13.05;6.55;;;;;;;17.39;63.76;99550.94;1682585;85;21061;-71
2021/07/31 03:11:37;;;;;;;9.63;5.87;;;;;;;17.37;63.79;99551.20;1682582;85;21558;-71
2021/07/31 03:14:03;;;;;;;13.15;6.30;;;;;;;17.37;63.82;99544.98;1682245;85;21022;-71
2021/07/31 03:16:29;;;;;;;10.10;5.92;;;;;;;17.39;63.84;99541.51;1682578;85;21145;-71
2021/07/31 03:18:55;;;;;;;15.43;6.35;;;;;;;17.39;63.87;99546.38;1682098;85;21514;-71
2021/07/31 03:21:21;;;;;;;9.55;6.22;;;;;;;17.39;63.88;99547.72;1682693;85;20994;-71
2021/07/31 03:23:47;;;;;;;13.68;6.87;;;;;;;17.42;63.88;99555.34;1682197;85;21047;-71
2021/07/31 03:26:13;;;;;;;9.73;6.12;;;;;;;17.47;63.89;99551.42;1682542;85;21064;-71
2021/07/31 03:28:39;;;;;;;14.20;7.42;;;;;;;17.53;63.86;99549.64;1682607;85;21160;-71
2021/07/31 03:31:05;;;;;;;10.43;5.62;;;;;;;17.61;63.83;99555.25;1682409;85;21041;-71
2021/07/31 03:33:31;;;;;;;11.22;6.12;;;;;;;17.65;63.78;99555.89;1682555;85;21078;-71
2021/07/31 03:35:57;;;;;;;13.68;6.15;;;;;;;17.68;63.76;99555.42;1682607;85;21042;-71
2021/07/31 03:38:24;;;;;;;11.43;6.90;;;;;;;17.69;63.75;99548.16;1682827;85;21118;-71
2021/07/31 03:40:51;;;;;;;13.58;7.30;;;;;;;17.72;63.72;99543.63;1682203;85;21808;-71
2021/07/31 03:43:17;;;;;;;17.23;7.92;;;;;;;17.74;63.71;99545.55;1682546;85;21050;-71
2021/07/31 03:45:43;;;;;;;16.90;10.72;;;;;;;17.75;63.70;99544.50;1682442;85;21037;-71
2021/07/31 03:48:09;;;;;;;11.45;7.10;;;;;;;17.77;63.70;99553.16;1682442;85;21515;-71
2021/07/31 03:50:40;;;;;;;12.68;7.85;;;;;;;17.77;63.70;99547.24;1682618;85;21474;-71
2021/07/31 03:53:06;;;;;;;16.60;7.97;;;;;;;17.77;63.73;99548.59;1682477;85;21867;-71
2021/07/31 03:55:32;;;;;;;12.23;7.62;;;;;;;17.79;63.74;99553.77;1682419;85;21010;-71
2021/07/31 03:57:58;;;;;;;13.43;8.63;;;;;;;17.79;63.76;99551.89;1682612;85;21025;-71
2021/07/31 04:00:24;;;;;;;12.47;8.50;;;;;;;17.82;63.79;99556.80;1682316;85;21073;-71
2021/07/31 04:02:50;;;;;;;19.12;8.45;;;;;;;17.84;63.81;99549.80;1682698;85;21003;-71
2021/07/31 04:05:16;;;;;;;13.55;7.58;;;;;;;17.87;63.85;99552.05;1682597;85;21885;-71
2021/07/31 04:07:42;;;;;;;16.42;7.83;;;;;;;17.91;63.86;99552.67;1682218;85;21055;-72
2021/07/31 04:10:10;;;;;;;12.95;7.92;;;;;;;17.93;63.86;99553.27;1682534;85;21019;-71
2021/07/31 04:12:36;;;;;;;18.70;8.03;;;;;;;17.96;63.90;99556.01;1682458;85;21507;-71
2021/07/31 04:15:02;;;;;;;24.12;8.90;;;;;;;18.01;63.93;99563.40;1681878;85;21551;-71
2021/07/31 04:17:28;;;;;;;19.80;8.53;;;;;;;18.06;63.93;99570.23;1682403;85;21174;-71
2021/07/31 04:19:54;;;;;;;19.12;8.90;;;;;;;18.08;63.95;99562.73;1682329;85;21034;-71
2021/07/31 04:22:20;;;;;;;17.65;7.70;;;;;;;18.10;63.96;99564.13;1682529;85;21570;-71
2021/07/31 04:24:46;;;;;;;8.80;6.65;;;;;;;18.12;64.00;99566.05;1682510;85;21010;-71
2021/07/31 04:27:13;;;;;;;12.93;7.00;;;;;;;18.16;64.04;99568.56;1682470;85;21014;-71
2021/07/31 04:29:40;;;;;;;9.78;7.22;;;;;;;18.22;64.08;99567.63;1682438;85;21096;-71
2021/07/31 04:32:06;;;;;;;9.53;7.37;;;;;;;18.29;64.12;99566.95;1682615;85;21087;-71
2021/07/31 04:34:32;;;;;;;11.10;7.22;;;;;;;18.37;64.14;99565.20;1682705;85;21081;-71
2021/07/31 04:36:58;;;;;;;12.85;6.80;;;;;;;18.44;64.19;99567.23;1682422;85;21029;-71
2021/07/31 04:39:24;;;;;;;12.25;8.03;;;;;;;18.52;64.20;99574.69;1682585;85;21089;-71
2021/07/31 04:41:50;;;;;;;12.05;6.97;;;;;;;18.59;64.21;99578.05;1682504;85;21607;-71
2021/07/31 04:44:16;;;;;;;9.30;6.83;;;;;;;18.69;64.21;99585.00;1682580;85;21026;-71
2021/07/31 04:46:42;;;;;;;9.85;6.87;;;;;;;18.83;64.22;99580.40;1682578;85;21581;-71
2021/07/31 04:49:08;;;;;;;12.35;6.72;;;;;;;19.15;64.19;99569.86;1682275;85;21077;-71
2021/07/31 04:51:34;;;;;;;11.95;7.20;;;;;;;19.35;63.91;99576.94;1682603;85;21054;-71
2021/07/31 04:54:00;;;;;;;10.75;7.42;;;;;;;19.30;63.79;99576.88;1682529;85;21086;-71
2021/07/31 04:56:27;;;;;;;11.80;7.72;;;;;;;19.25;63.77;99583.54;1682684;85;21041;-71
2021/07/31 04:58:53;;;;;;;11.57;6.58;;;;;;;19.27;63.73;99583.30;1682110;85;21105;-71
2021/07/31 05:01:19;;;;;;;11.40;7.83;;;;;;;19.31;63.73;99578.52;1682402;85;21050;-71
2021/07/31 05:03:45;;;;;;;10.93;7.20;;;;;;;19.28;63.69;99587.66;1682627;84;21037;-71
2021/07/31 05:06:11;;;;;;;9.00;6.85;;;;;;;19.36;63.68;99588.05;1682497;85;21549;-71
2021/07/31 05:08:37;;;;;;;8.70;6.50;;;;;;;19.53;63.65;99586.70;1682379;85;21027;-71
2021/07/31 05:11:07;;;;;;;9.83;7.05;;;;;;;19.70;63.53;99586.14;1682089;85;21066;-71
2021/07/31 05:13:35;;;;;;;;;;;;;;;19.84;63.45;99594.75;1684958;85;21133;-71
2021/07/31 05:16:01;;;;;;;13.13;7.65;;;;;;;20.02;63.33;99593.07;1682648;85;20161;-71
2021/07/31 05:18:27;;;;;;;12.33;6.60;;;;;;;20.50;63.19;99599.66;1671546;85;21046;-72
2021/07/31 05:20:53;;;;;;;11.30;7.05;;;;;;;20.93;62.96;99611.77;1663244;86;21103;-71
2021/07/31 05:23:19;;;;;;;8.33;6.35;;;;;;;21.28;62.61;99615.38;1663409;86;21015;-72
2021/07/31 05:25:45;;;;;;;11.65;6.83;;;;;;;21.57;62.24;99619.94;1663534;86;21067;-71
2021/07/31 05:28:12;;;;;;;14.63;8.00;;;;;;;21.88;61.87;99619.06;1663126;86;21528;-72
2021/07/31 05:30:40;;;;;;;10.20;6.37;;;;;;;22.12;61.40;99623.02;1663363;86;21421;-72
2021/07/31 05:33:06;;;;;;;9.35;6.10;;;;;;;22.29;60.81;99612.77;1612607;88;21049;-72
2021/07/31 05:35:32;;;;;;;11.00;5.75;;;;;;;22.40;60.37;99615.81;1687083;84;20982;-72
2021/07/31 05:37:58;;;;;;;13.10;5.90;;;;;;;22.63;60.01;99612.33;1696281;84;21010;-71
2021/07/31 05:40:24;;;;;;;11.65;6.05;;;;;;;22.75;59.59;99613.77;1659446;85;21089;-71
2021/07/31 05:42:50;;;;;;;8.20;6.90;;;;;;;22.85;59.19;99614.33;1692447;84;21551;-72
2021/07/31 05:45:16;;;;;;;14.30;6.65;;;;;;;22.97;58.70;99612.19;1680000;84;21104;-71
2021/07/31 05:47:42;;;;;;;9.98;5.92;;;;;;;23.14;58.39;99612.73;1680504;84;21035;-72
2021/07/31 05:50:09;;;;;;;10.10;6.05;;;;;;;23.40;57.96;99610.28;1677513;84;21054;-72
2021/07/31 05:52:37;;;;;;;13.50;6.17;;;;;;;23.43;57.54;99616.31;1692431;84;21027;-72
2021/07/31 05:55:04;;;;;;;11.60;5.62;;;;;;;23.52;57.26;99620.11;1686077;84;22548;-72
2021/07/31 05:57:30;;;;;;;13.62;5.80;;;;;;;23.43;56.71;99613.05;1647102;86;21061;-73
2021/07/31 05:59:57;;;;;;;18.05;6.85;;;;;;;23.39;56.27;99625.00;1621956;87;21054;-72
2021/07/31 06:02:23;;;;;;;9.15;5.90;;;;;;;23.37;55.91;99627.70;1693623;84;21048;-72
2021/07/31 06:04:49;;;;;;;7.10;5.12;;;;;;;23.43;55.62;99622.58;1671843;85;21043;-71
2021/07/31 06:07:15;;;;;;;9.05;4.97;;;;;;;23.32;55.26;99629.89;1653084;85;21870;-72
2021/07/31 06:09:42;;;;;;;8.60;5.22;;;;;;;23.39;55.17;99633.16;1653406;86;21070;-71
2021/07/31 06:12:09;;;;;;;8.83;5.58;;;;;;;23.47;55.03;99639.19;1653180;86;21057;-70
2021/07/31 06:14:38;;;;;;;8.10;5.45;;;;;;;23.63;54.88;99646.23;1653218;85;21053;-71
2021/07/31 06:17:05;;;;;;;8.58;5.10;;;;;;;23.58;54.28;99638.06;1627300;88;21069;-70
2021/07/31 06:19:31;;;;;;;10.90;4.92;;;;;;;23.54;54.25;99641.88;1679223;84;21710;-70
2021/07/31 06:21:58;;;;;;;11.63;5.67;;;;;;;23.69;54.29;99637.79;1688592;84;21052;-70
2021/07/31 06:24:24;;;;;;;9.88;5.33;;;;;;;23.74;53.96;99639.70;1653337;86;21440;-69
2021/07/31 06:26:50;;;;;;;7.67;4.92;;;;;;;23.79;53.78;99640.49;1690285;84;21412;-69
2021/07/31 06:29:16;;;;;;;10.58;5.30;;;;;;;23.73;53.40;99631.25;1685479;84;21062;-70
2021/07/31 06:31:42;;;;;;;12.80;5.65;;;;;;;23.69;53.29;99643.77;1682475;84;21899;-74
2021/07/31 06:34:08;;;;;;;9.20;4.70;;;;;;;23.75;53.32;99648.14;1691798;84;20983;-74
2021/07/31 06:36:35;;;;;;;6.30;4.83;;;;;;;23.82;53.16;99644.02;1691118;84;21113;-75
2021/07/31 06:39:02;;;;;;;14.78;5.53;;;;;;;23.90;53.06;99644.02;1685854;84;21083;-75
2021/07/31 06:41:28;;;;;;;9.25;5.40;;;;;;;24.08;52.92;99646.16;1653308;86;21027;-75
2021/07/31 06:43:55;;;;;;;13.65;4.80;;;;;;;24.23;52.66;99652.97;1690856;84;22437;-75
2021/07/31 06:46:24;;;;;;;7.45;4.70;;;;;;;24.38;52.43;99655.38;1691251;84;21156;-75
2021/07/31 06:48:54;;;;;;;10.82;4.42;;;;;;;24.65;52.35;99647.61;1690793;84;20932;-75
2021/07/31 06:51:21;;;;;;;7.80;5.50;;;;;;;24.90;52.04;99646.14;1671692;83;21026;-75
2021/07/31 06:53:48;;;;;;;7.50;4.60;;;;;;;24.92;51.65;99653.48;1689203;84;21087;-75
2021/07/31 06:56:14;;;;;;;11.55;4.42;;;;;;;24.86;51.42;99646.44;1682272;84;22569;-75
2021/07/31 06:58:40;;;;;;;7.95;4.67;;;;;;;24.73;51.04;99660.67;1653115;86;21021;-75
2021/07/31 07:01:11;;;;;;;5.35;4.35;;;;;;;24.77;50.94;99667.98;1692204;84;21010;-75
2021/07/31 07:03:37;;;;;;;8.18;4.12;;;;;;;24.48;50.54;99661.59;1688918;84;21046;-75
2021/07/31 07:06:04;;;;;;;8.65;4.80;;;;;;;24.25;50.74;99658.13;1689275;84;20992;-75
2021/07/31 07:08:32;;;;;;;8.95;5.12;;;;;;;24.57;51.02;99659.09;1691712;84;21875;-75
2021/07/31 07:10:59;;;;;;;8.15;5.10;;;;;;;24.90;51.00;99654.33;1689825;84;21136;-75
2021/07/31 07:13:25;;;;;;;9.30;5.08;;;;;;;25.02;50.83;99661.60;1678016;83;21113;-75
2021/07/31 07:15:51;;;;;;;8.53;5.42;;;;;;;25.22;50.85;99664.22;1653633;85;21511;-75
2021/07/31 07:18:17;;;;;;;9.10;5.10;;;;;;;25.21;50.46;99672.68;1640565;85;20990;-75
2021/07/31 07:20:44;;;;;;;7.80;4.70;;;;;;;25.19;50.43;99681.14;1682912;83;21901;-75
2021/07/31 07:23:10;;;;;;;7.75;4.87;;;;;;;25.16;50.22;99681.70;1694242;84;20976;-75
2021/07/31 07:25:36;;;;;;;9.08;4.00;;;;;;;25.11;49.99;99685.85;1693724;84;21056;-74
2021/07/31 07:28:03;;;;;;;7.30;4.37;;;;;;;25.16;49.97;99688.53;1693873;84;21111;-75
2021/07/31 07:30:29;;;;;;;7.40;4.83;;;;;;;25.14;49.76;99686.64;1694306;83;21385;-75
2021/07/31 07:32:55;;;;;;;6.42;4.08;;;;;;;25.30;49.73;99688.71;1682479;83;21807;-74
2021/07/31 07:35:21;;;;;;;8.33;4.47;;;;;;;25.34;49.52;99683.77;1685084;83;21023;-75
2021/07/31 07:37:48;;;;;;;4.70;4.03;;;;;;;25.38;49.50;99681.29;1711505;83;21388;-74
2021/07/31 07:40:14;;;;;;;15.53;4.75;;;;;;;25.55;49.38;99689.10;1682128;85;21034;-75
2021/07/31 07:42:41;;;;;;;7.95;3.98;;;;;;;25.62;49.20;99693.69;1710313;83;21063;-74
2021/07/31 07:45:08;;;;;;;10.63;4.55;;;;;;;25.67;49.11;99695.02;1711358;82;22653;-75
2021/07/31 07:47:34;;;;;;;6.83;4.10;;;;;;;25.69;48.99;99699.09;1711108;83;21554;-75
2021/07/31 07:50:02;;;;;;;7.37;4.00;;;;;;;25.73;48.87;99696.60;1711481;83;21597;-75
2021/07/31 07:52:28;;;;;;;11.45;4.47;;;;;;;25.74;48.77;99694.14;1682237;84;21055;-75
2021/07/31 07:54:54;;;;;;;10.70;3.87;;;;;;;25.67;48.38;99688.20;1692603;84;21284;-74
2021/07/31 07:57:20;;;;;;;6.03;3.90;;;;;;;25.62;48.33;99689.05;1706198;84;21987;-75
2021/07/31 07:59:46;;;;;;;6.80;4.15;;;;;;;25.73;48.19;99696.60;1689270;83;21035;-75
2021/07/31 08:02:12;;;;;;;11.00;4.12;;;;;;;25.80;48.17;99687.52;1707333;82;21055;-76
2021/07/31 08:04:38;;;;;;;7.95;4.10;;;;;;;25.97;48.23;99690.64;1711513;82;21487;-75
2021/07/31 08:07:04;;;;;;;7.28;3.75;;;;;;;26.21;48.16;99690.14;1711226;83;21001;-75
2021/07/31 08:09:31;;;;;;;6.42;4.15;;;;;;;26.44;47.97;99704.13;1711295;83;21880;-75
2021/07/31 08:11:57;;;;;;;15.10;3.70;;;;;;;26.41;47.58;99704.71;1716157;82;20945;-74
2021/07/31 08:14:23;;;;;;;9.93;4.15;;;;;;;26.28;47.38;99698.03;1711269;82;21051;-75
2021/07/31 08:16:49;;;;;;;4.15;3.50;;;;;;;26.14;47.32;99703.31;1716350;83;21061;-75
2021/07/31 08:19:15;;;;;;;8.60;4.28;;;;;;;26.26;47.32;99701.04;1708812;82;21025;-75
2021/07/31 08:21:41;;;;;;;6.87;3.08;;;;;;;26.37;46.92;99700.92;1680435;85;21978;-75
2021/07/31 08:24:07;;;;;;;7.03;3.10;;;;;;;26.28;46.41;99709.75;1691995;84;21248;-75
2021/07/31 08:26:34;;;;;;;6.65;3.22;;;;;;;26.37;46.43;99695.45;1692410;84;21526;-75
2021/07/31 08:28:59;;;;;;;4.12;2.80;;;;;;;26.36;46.11;99685.61;1704659;84;21207;-75
2021/07/31 08:31:26;;;;;;;5.85;3.08;;;;;;;26.42;46.02;99698.14;1704911;84;21100;-75
2021/07/31 08:33:52;;;;;;;6.28;3.15;;;;;;;26.40;45.80;99707.99;1703690;84;21878;-75
2021/07/31 08:36:18;;;;;;;5.35;3.17;;;;;;;26.50;45.47;99704.32;1704514;84;21134;-75
2021/07/31 08:38:44;;;;;;;10.58;2.92;;;;;;;26.53;45.32;99715.49;1704602;84;21021;-75
2021/07/31 08:41:10;;;;;;;7.03;3.20;;;;;;;26.48;44.81;99716.12;1704894;84;21018;-75
2021/07/31 08:43:36;;;;;;;3.67;2.92;;;;;;;26.30;44.49;99715.77;1704524;84;21510;-75
2021/07/31 08:46:09;;;;;;;10.48;2.90;;;;;;;26.25;44.46;99714.44;1704538;84;22490;-75
2021/07/31 08:48:35;;;;;;;10.55;2.55;;;;;;;26.41;44.46;99715.65;1704794;84;21014;-75
2021/07/31 08:51:02;;;;;;;3.22;2.52;;;;;;;26.49;44.38;99717.20;1704766;84;21013;-75
2021/07/31 08:53:29;;;;;;;8.83;3.08;;;;;;;26.68;44.25;99718.61;1704763;84;21030;-75
2021/07/31 08:55:55;;;;;;;9.18;2.80;;;;;;;26.76;43.49;99716.59;1704790;84;20950;-75
2021/07/31 08:58:25;;;;;;;3.10;2.55;;;;;;;26.55;43.17;99711.11;1704883;84;21752;-75
2021/07/31 09:00:51;;;;;;;;;;;;;;;26.43;42.82;99715.61;1707228;84;21030;-75
2021/07/31 09:03:17;;;;;;;4.92;2.40;;;;;;;26.29;42.72;99716.86;1704799;84;20117;-75
2021/07/31 09:05:43;;;;;;;4.72;2.77;;;;;;;26.37;42.88;99715.97;1704787;84;21181;-75
2021/07/31 09:08:10;;;;;;;5.70;2.50;;;;;;;26.40;42.62;99715.38;1704846;84;21006;-75
2021/07/31 09:10:42;;;;;;;9.05;2.70;;;;;;;26.39;42.49;99723.34;1704616;84;21900;-75
2021/07/31 09:13:18;;;;;;;13.20;3.17;;;;;;;26.40;42.28;99712.64;1704587;84;21060;-77
2021/07/31 09:15:47;;;;;;;3.37;2.40;;;;;;;26.54;42.30;99725.34;1704559;82;21069;-77
2021/07/31 09:18:31;;;;;;;;;;;;;;;26.59;41.98;99723.11;1707421;84;21037;-75
2021/07/31 09:21:12;;;;;;;6.90;2.80;;;;;;;26.53;41.52;99729.75;1710272;83;20181;-75
2021/07/31 09:23:50;;;;;;;5.60;2.05;;;;;;;26.48;41.36;99724.32;1710359;83;22553;-75
2021/07/31 09:26:36;;;;;;;9.43;2.62;;;;;;;26.45;41.11;99719.44;1709712;83;21010;-77
2021/07/31 09:29:10;;;;;;;5.05;2.35;;;;;;;26.52;41.23;99716.63;1710557;83;20895;-77
2021/07/31 09:31:50;;;;;;;5.15;2.70;;;;;;;26.64;41.04;99718.92;1710389;83;21509;-78
2021/07/31 09:34:45;;;;;;;4.03;2.60;;;;;;;26.57;41.05;99715.73;1681530;85;21169;-77
2021/07/31 09:37:23;;;;;;;2.17;1.98;;;;;;;26.41;40.77;99729.33;1683680;85;21833;-77
2021/07/31 09:39:54;;;;;;;16.70;3.55;;;;;;;26.14;41.08;99727.91;1683184;84;20966;-77
2021/07/31 09:42:39;;;;;;;7.65;2.70;;;;;;;26.46;41.29;99713.66;1683614;85;21037;-77
2021/07/31 09:45:15;;;;;;;3.72;2.35;;;;;;;26.84;41.27;99714.62;1683226;84;21018;-77
2021/07/31 09:48:01;;;;;;;16.42;2.70;;;;;;;26.99;41.15;99713.03;1683782;85;20974;-77
2021/07/31 09:50:42;;;;;;;6.05;2.30;;;;;;;27.05;41.13;99718.72;1683721;85;21939;-77
2021/07/31 09:53:14;;;;;;;11.28;2.90;;;;;;;26.88;40.32;99706.09;1683480;84;21061;-77
2021/07/31 09:55:49;;;;;;;8.83;2.67;;;;;;;26.51;40.32;99697.20;1683342;84;20965;-77
2021/07/31 09:58:18;;;;;;;8.28;2.90;;;;;;;26.47;40.35;99706.27;1683616;84;21033;-77
2021/07/31 10:00:45;;;;;;;10.63;2.90;;;;;;;26.68;40.43;99704.92;1683413;84;21066;-77
2021/07/31 10:03:13;;;;;;;8.75;3.47;;;;;;;26.75;40.18;99699.91;1683673;85;21887;-77
2021/07/31 10:05:40;;;;;;;6.42;2.87;;;;;;;26.65;39.95;99705.52;1683378;84;20924;-77
2021/07/31 10:08:07;;;;;;;10.25;2.42;;;;;;;26.19;39.81;99705.22;1683559;85;21304;-76
2021/07/31 10:10:34;;;;;;;6.80;2.50;;;;;;;25.70;39.97;99707.56;1683248;84;21061;-77
2021/07/31 10:13:00;;;;;;;5.00;2.42;;;;;;;25.73;40.29;99704.80;1683484;84;21474;-77
2021/07/31 10:15:26;;;;;;;5.25;2.40;;;;;;;26.02;40.49;99702.91;1683307;83;21896;-75
2021/07/31 10:17:53;;;;;;;4.22;2.10;;;;;;;26.30;40.54;99693.08;1683718;84;21002;-75
2021/07/31 10:20:25;;;;;;;4.75;2.55;;;;;;;26.42;40.35;99700.88;1670868;84;20962;-75
2021/07/31 10:22:51;;;;;;;2.45;2.15;;;;;;;26.49;40.33;99693.14;1694518;84;21454;-74
2021/07/31 10:25:19;;;;;;;5.70;2.50;;;;;;;26.72;39.99;99695.03;1712425;83;20974;-75
2021/07/31 10:27:47;;;;;;;5.47;2.40;;;;;;;26.71;39.74;99694.21;1712420;83;21924;-75
2021/07/31 10:30:38;;;;;;;25.95;3.20;;;;;;;26.85;39.60;99692.97;1712001;83;21504;-75
2021/07/31 10:33:03;;;;;;;11.28;2.75;;;;;;;27.11;39.39;99687.41;1712263;83;21152;-75
2021/07/31 10:35:35;;;;;;;3.02;2.17;;;;;;;27.20;39.01;99686.17;1712198;83;22073;-75
2021/07/31 10:38:09;;;;;;;4.28;2.10;;;;;;;27.11;38.96;99684.67;1712261;83;21366;-75
2021/07/31 10:40:41;;;;;;;3.10;2.30;;;;;;;26.83;38.84;99686.98;1712298;83;21789;-75
2021/07/31 10:43:09;;;;;;;2.62;1.95;;;;;;;26.66;38.64;99686.63;1712296;83;21049;-74
2021/07/31 10:45:35;;;;;;;7.03;2.83;;;;;;;26.53;38.63;99685.98;1712458;83;21084;-75
2021/07/31 10:48:05;;;;;;;4.35;2.45;;;;;;;26.78;38.71;99686.45;1712645;83;21014;-75
2021/07/31 10:50:38;;;;;;;3.67;2.27;;;;;;;26.93;38.64;99680.00;1712440;83;21049;-75
2021/07/31 10:53:10;;;;;;;4.00;2.10;;;;;;;27.20;38.76;99680.15;1712362;83;22529;-75
2021/07/31 10:55:45;;;;;;;7.20;2.40;;;;;;;27.46;38.56;99682.53;1687978;83;21034;-75
2021/07/31 10:58:17;;;;;;;3.98;2.15;;;;;;;27.63;38.31;99690.46;1712519;83;20938;-75
2021/07/31 11:00:44;;;;;;;3.92;2.17;;;;;;;27.65;37.89;99681.95;1712357;83;21013;-74
2021/07/31 11:03:20;;;;;;;6.10;2.20;;;;;;;27.58;37.71;99683.71;1712579;83;20945;-75
2021/07/31 11:05:55;;;;;;;7.87;2.55;;;;;;;27.40;37.40;99686.44;1712347;83;21877;-74
2021/07/31 11:08:48;;;;;;;3.83;1.95;;;;;;;27.14;37.32;99686.00;1714790;82;20954;-75
2021/07/31 11:11:19;;;;;;;4.60;1.95;;;;;;;27.19;37.45;99685.39;1717018;82;21053;-77
2021/07/31 11:13:51;;;;;;;4.05;2.08;;;;;;;27.18;37.43;99678.27;1709433;82;21071;-77
2021/07/31 11:16:21;;;;;;;4.70;1.87;;;;;;;26.92;36.85;99683.02;1689406;84;21059;-77
2021/07/31 11:18:54;;;;;;;3.02;1.90;;;;;;;26.75;36.83;99693.08;1719276;82;21886;-76
2021/07/31 11:21:38;;;;;;;19.02;3.50;;;;;;;26.73;37.01;99682.98;1708942;82;20983;-78
2021/07/31 11:24:09;;;;;;;3.25;2.40;;;;;;;26.93;37.05;99685.48;1703189;83;21028;-77
2021/07/31 11:26:52;;;;;;;3.72;2.05;;;;;;;27.21;37.03;99686.44;1705398;82;21432;-76
2021/07/31 11:29:21;;;;;;;12.50;2.58;;;;;;;27.16;36.36;99684.58;1712481;83;21030;-75
2021/07/31 11:32:04;;;;;;;6.90;2.83;;;;;;;27.00;35.90;99684.55;1679973;84;22337;-74